Snoqualmie River: North Fork station

back to: Snoqualmie river
North Fork station Summary - (NOAA Hydrograph: SNQW1)
Latest reading:
Wed09/19 10:15 am 2.14 ft 84 cfs (steady)
Past 24hr max:
Tue09/18 10:15 am 2.27 ft 105 cfs
Forecasted crests: (published Tue 09/18/18 02:28 pm)
Sat09/22 11:00 am 3.56 ft 478 cfs

North Fork station Details

Latest Readings

Last 100 Readings:
Wed09/19 10:15 am 2.14 ft 84 cfs
Wed09/19 10:00 am 2.14 ft 84 cfs
Wed09/19 09:45 am 2.15 ft 86 cfs
Wed09/19 09:30 am 2.14 ft 84 cfs
Wed09/19 09:15 am 2.15 ft 86 cfs
Wed09/19 09:00 am 2.15 ft 86 cfs
Wed09/19 08:45 am 2.15 ft 86 cfs
Wed09/19 08:30 am 2.15 ft 86 cfs
Wed09/19 08:15 am 2.15 ft 86 cfs
Wed09/19 08:00 am 2.15 ft 86 cfs
Wed09/19 07:45 am 2.15 ft 86 cfs
Wed09/19 07:30 am 2.15 ft 86 cfs
Wed09/19 07:15 am 2.15 ft 86 cfs
Wed09/19 07:00 am 2.15 ft 86 cfs
Wed09/19 06:45 am 2.16 ft 87 cfs
Wed09/19 06:30 am 2.15 ft 86 cfs
Wed09/19 06:15 am 2.16 ft 87 cfs
Wed09/19 06:00 am 2.16 ft 87 cfs
Wed09/19 05:45 am 2.16 ft 87 cfs
Wed09/19 05:30 am 2.16 ft 87 cfs
Wed09/19 05:15 am 2.16 ft 87 cfs
Wed09/19 05:00 am 2.16 ft 87 cfs
Wed09/19 04:45 am 2.16 ft 87 cfs
Wed09/19 04:30 am 2.16 ft 87 cfs
Wed09/19 04:15 am 2.17 ft 89 cfs
Wed09/19 04:00 am 2.17 ft 89 cfs
Wed09/19 03:45 am 2.17 ft 89 cfs
Wed09/19 03:30 am 2.16 ft 87 cfs
Wed09/19 03:15 am 2.17 ft 89 cfs
Wed09/19 03:00 am 2.17 ft 89 cfs
Wed09/19 02:45 am 2.17 ft 89 cfs
Wed09/19 02:30 am 2.17 ft 89 cfs
Wed09/19 02:15 am 2.17 ft 89 cfs
Wed09/19 02:00 am 2.18 ft 90 cfs
Wed09/19 01:45 am 2.18 ft 90 cfs
Wed09/19 01:30 am 2.18 ft 90 cfs
Wed09/19 01:15 am 2.18 ft 90 cfs
Wed09/19 01:00 am 2.18 ft 90 cfs
Wed09/19 12:45 am 2.18 ft 90 cfs
Wed09/19 12:30 am 2.18 ft 90 cfs
Wed09/19 12:15 am 2.18 ft 90 cfs
Wed09/19 12:00 am 2.18 ft 90 cfs
Tue09/18 11:45 pm 2.19 ft 92 cfs
Tue09/18 11:30 pm 2.19 ft 92 cfs
Tue09/18 11:15 pm 2.19 ft 92 cfs
Tue09/18 11:00 pm 2.19 ft 92 cfs
Tue09/18 10:45 pm 2.19 ft 92 cfs
Tue09/18 10:30 pm 2.19 ft 92 cfs
Tue09/18 10:15 pm 2.19 ft 92 cfs
Tue09/18 10:00 pm 2.2 ft 93 cfs
Tue09/18 09:45 pm 2.2 ft 93 cfs
Tue09/18 09:30 pm 2.2 ft 93 cfs
Tue09/18 09:15 pm 2.2 ft 93 cfs
Tue09/18 09:00 pm 2.2 ft 93 cfs
Tue09/18 08:45 pm 2.2 ft 93 cfs
Tue09/18 08:30 pm 2.21 ft 95 cfs
Tue09/18 08:15 pm 2.21 ft 95 cfs
Tue09/18 08:00 pm 2.21 ft 95 cfs
Tue09/18 07:45 pm 2.21 ft 95 cfs
Tue09/18 07:30 pm 2.21 ft 95 cfs
Tue09/18 07:15 pm 2.21 ft 95 cfs
Tue09/18 07:00 pm 2.21 ft 95 cfs
Tue09/18 06:45 pm 2.21 ft 95 cfs
Tue09/18 06:30 pm 2.21 ft 95 cfs
Tue09/18 06:15 pm 2.22 ft 96 cfs
Tue09/18 06:00 pm 2.22 ft 96 cfs
Tue09/18 05:45 pm 2.22 ft 96 cfs
Tue09/18 05:30 pm 2.22 ft 96 cfs
Tue09/18 05:15 pm 2.22 ft 96 cfs
Tue09/18 05:00 pm 2.22 ft 96 cfs
Tue09/18 04:45 pm 2.22 ft 96 cfs
Tue09/18 04:30 pm 2.22 ft 96 cfs
Tue09/18 04:15 pm 2.23 ft 98 cfs
Tue09/18 04:00 pm 2.23 ft 98 cfs
Tue09/18 03:45 pm 2.23 ft 98 cfs
Tue09/18 03:30 pm 2.23 ft 98 cfs
Tue09/18 03:15 pm 2.23 ft 98 cfs
Tue09/18 03:00 pm 2.24 ft 100 cfs
Tue09/18 02:45 pm 2.24 ft 100 cfs
Tue09/18 02:30 pm 2.24 ft 100 cfs
Tue09/18 02:15 pm 2.24 ft 100 cfs
Tue09/18 02:00 pm 2.24 ft 100 cfs
Tue09/18 01:45 pm 2.24 ft 100 cfs
Tue09/18 01:30 pm 2.24 ft 100 cfs
Tue09/18 01:15 pm 2.25 ft 101 cfs
Tue09/18 01:00 pm 2.25 ft 101 cfs
Tue09/18 12:45 pm 2.25 ft 101 cfs
Tue09/18 12:30 pm 2.26 ft 103 cfs
Tue09/18 12:15 pm 2.25 ft 101 cfs
Tue09/18 12:00 pm 2.26 ft 103 cfs
Tue09/18 11:45 am 2.26 ft 103 cfs
Tue09/18 11:30 am 2.26 ft 103 cfs
Tue09/18 11:15 am 2.26 ft 103 cfs
Tue09/18 11:00 am 2.27 ft 105 cfs
Tue09/18 10:45 am 2.27 ft 105 cfs
Tue09/18 10:30 am 2.27 ft 105 cfs
Tue09/18 10:15 am 2.27 ft 105 cfs
Tue09/18 10:00 am 2.27 ft 105 cfs
Tue09/18 09:45 am 2.27 ft 105 cfs
Tue09/18 09:30 am 2.27 ft 105 cfs

Latest Forecasts

Currently Forecasted Readings:
Tue09/18 05:00 pm 2.24 ft 99 cfs
Tue09/18 11:00 pm 2.21 ft 94 cfs
Wed09/19 05:00 am 2.18 ft 90 cfs
Wed09/19 11:00 am 2.15 ft 86 cfs
Wed09/19 05:00 pm 2.13 ft 82 cfs
Wed09/19 11:00 pm 2.12 ft 82 cfs
Thu09/20 05:00 am 2.11 ft 80 cfs
Thu09/20 11:00 am 2.09 ft 78 cfs
Thu09/20 05:00 pm 2.1 ft 78 cfs
Thu09/20 11:00 pm 2.21 ft 95 cfs
Fri09/21 05:00 am 2.37 ft 121 cfs
Fri09/21 11:00 am 2.74 ft 203 cfs
Fri09/21 05:00 pm 2.87 ft 237 cfs
Fri09/21 11:00 pm 3.18 ft 331 cfs
Sat09/22 05:00 am 3.46 ft 435 cfs
Sat09/22 11:00 am 3.56 ft 478 cfs
Sat09/22 05:00 pm 3.45 ft 430 cfs
Sat09/22 11:00 pm 3.24 ft 353 cfs
Sun09/23 05:00 am 3.01 ft 278 cfs
Sun09/23 11:00 am 2.91 ft 248 cfs
Sun09/23 05:00 pm 2.86 ft 233 cfs
Sun09/23 11:00 pm 2.79 ft 216 cfs
Mon09/24 05:00 am 2.74 ft 201 cfs
Mon09/24 11:00 am 2.68 ft 188 cfs
Mon09/24 05:00 pm 2.63 ft 176 cfs
Mon09/24 11:00 pm 2.58 ft 166 cfs
Tue09/25 05:00 am 2.54 ft 156 cfs
Tue09/25 11:00 am 2.5 ft 147 cfs
Tue09/25 05:00 pm 2.46 ft 139 cfs
Tue09/25 11:00 pm 2.42 ft 131 cfs
Wed09/26 05:00 am 2.38 ft 124 cfs
Wed09/26 11:00 am 2.35 ft 118 cfs
Wed09/26 05:00 pm 2.31 ft 112 cfs
Wed09/26 11:00 pm 2.28 ft 107 cfs
Thu09/27 05:00 am 2.25 ft 102 cfs
Thu09/27 11:00 am 2.23 ft 97 cfs
Thu09/27 05:00 pm 2.2 ft 93 cfs
Thu09/27 11:00 pm 2.17 ft 89 cfs
Fri09/28 05:00 am 2.21 ft 95 cfs

Snoqualmie River flood gauge data supplied by the
National Weather Service Northwest River Forecast Center.

Sign up for Floodzilla alerts.